Time;durP1;ratioP1;P1;durP2;ratioP2;P2;SDS_P1;SDS_P2;PMS_P1;PMS_P2;Temp;Humidity;BMP_temperature;BMP_pressure;BME280_temperature;BME280_humidity;BME280_pressure;Samples;Min_cycle;Max_cycle;Signal;HPM_P1;HPM_P2
2022/04/05 00:01:19;;;;;;;;;9.25;9.25;;;;;10.74;54.13;100969.31;5034709;28;45980;-70
2022/04/05 00:03:45;;;;;;;;;6.25;5.50;;;;;10.80;53.88;100971.97;5035666;28;45392;-70
2022/04/05 00:06:11;;;;;;;;;17.75;12.25;;;;;10.92;54.45;100993.00;5036008;28;46087;-71
2022/04/05 00:08:37;;;;;;;;;13.50;9.75;;;;;10.91;54.79;100996.47;5036374;28;45493;-70
2022/04/05 00:11:03;;;;;;;;;13.00;13.00;;;;;10.75;54.91;100965.84;5037070;28;45924;-71
2022/04/05 00:13:28;;;;;;;;;14.00;13.00;;;;;10.78;54.74;100963.22;5034294;28;45505;-70
2022/04/05 00:15:54;;;;;;;;;10.50;9.75;;;;;10.83;55.15;100975.47;5035655;28;45394;-70
2022/04/05 00:18:19;;;;;;;;;15.00;13.00;;;;;10.86;54.98;100982.47;5035407;28;45495;-70
2022/04/05 00:20:45;;;;;;;;;14.50;12.00;;;;;10.81;55.89;100977.19;5035917;28;45692;-70
2022/04/05 00:23:11;;;;;;;;;10.50;9.75;;;;;10.81;55.60;100971.09;5035672;28;45840;-70
2022/04/05 00:25:36;;;;;;;;;11.25;11.25;;;;;10.76;55.86;100964.97;5034419;28;45546;-71
2022/04/05 00:28:03;;;;;;;;;9.75;9.75;;;;;10.80;55.73;100970.22;5035885;28;45928;-71
2022/04/05 00:30:28;;;;;;;;;12.25;12.25;;;;;10.85;55.80;100975.50;5034825;28;45485;-70
2022/04/05 00:32:54;;;;;;;;;13.00;10.25;;;;;10.77;56.01;100959.72;5035194;28;45585;-70
2022/04/05 00:35:21;;;;;;;;;15.25;10.25;;;;;10.87;56.44;100989.47;5035234;28;45617;-70
2022/04/05 00:37:48;;;;;;;;;14.00;11.50;;;;;10.88;56.34;100991.22;5036543;28;46358;-70
2022/04/05 00:40:14;;;;;;;;;7.75;7.75;;;;;10.89;56.25;100990.38;5036141;28;45476;-70
2022/04/05 00:42:43;;;;;;;;;10.00;9.25;;;;;10.83;56.39;100982.47;5033458;28;45351;-70
2022/04/05 00:45:09;;;;;;;;;8.00;8.00;;;;;10.89;56.68;100982.50;5050845;28;45457;-70
2022/04/05 00:47:36;;;;;;;;;8.50;8.50;;;;;10.90;56.71;100980.75;5034368;28;45541;-70
2022/04/05 00:50:05;;;;;;;;;9.00;8.75;;;;;10.85;57.21;100972.88;5034482;28;45220;-71
2022/04/05 00:52:30;;;;;;;;;13.25;9.00;;;;;10.90;56.95;100975.50;5033990;28;45509;-69
2022/04/05 00:54:58;;;;;;;;;8.50;8.50;;;;;10.76;56.81;100959.72;5035385;28;45462;-71
2022/04/05 00:57:25;;;;;;;;;10.00;9.25;;;;;10.93;56.57;100972.88;5035018;28;46109;-71
2022/04/05 01:00:03;;;;;;;;;12.00;9.00;;;;;10.92;57.06;100982.50;5035371;28;45751;-71
2022/04/05 01:02:34;;;;;;;;;12.25;11.00;;;;;10.93;57.41;100973.75;5033337;28;45437;-70
2022/04/05 01:05:00;;;;;;;;;10.25;10.25;;;;;10.94;57.55;100972.91;5036907;28;45491;-69
2022/04/05 01:07:27;;;;;;;;;12.50;11.00;;;;;10.90;57.69;100971.13;5035624;28;46585;-69
2022/04/05 01:09:56;;;;;;;;;14.50;10.75;;;;;10.77;57.67;100940.50;5036080;28;45347;-69
2022/04/05 01:12:28;;;;;;;;;12.00;10.25;;;;;10.87;57.58;100960.66;5036206;28;45410;-70
2022/04/05 01:14:54;;;;;;;;;13.00;10.50;;;;;10.79;57.96;100942.25;5068697;28;45441;-69
2022/04/05 01:17:19;;;;;;;;;8.50;7.25;;;;;10.74;58.06;100940.50;5037400;28;45462;-69
2022/04/05 01:19:49;;;;;;;;;9.00;9.00;;;;;10.89;57.97;100963.25;5039769;28;45289;-69
2022/04/05 01:22:14;;;;;;;;;10.75;9.00;;;;;10.86;58.26;100958.88;5039918;28;45533;-70
2022/04/05 01:24:40;;;;;;;;;10.75;8.75;;;;;10.90;58.36;100958.03;5039931;28;45533;-70
2022/04/05 01:27:12;;;;;;;;;11.75;10.25;;;;;10.15;58.92;100835.41;5039749;28;46041;-69
2022/04/05 01:29:38;;;;;;;;;10.50;9.50;;;;;10.77;58.97;100938.78;5039640;28;45436;-70
2022/04/05 01:32:06;;;;;;;;;7.25;7.25;;;;;10.89;58.89;100956.28;5039253;28;45538;-70
2022/04/05 01:34:37;;;;;;;;;10.50;9.50;;;;;10.83;58.82;100935.28;5039455;28;45465;-70
2022/04/05 01:37:05;;;;;;;;;11.75;9.75;;;;;10.93;58.46;100946.69;5038179;28;45535;-70
2022/04/05 01:39:35;;;;;;;;;13.00;11.50;;;;;10.94;58.90;100945.81;5039552;28;45390;-70
2022/04/05 01:42:04;;;;;;;;;12.00;10.00;;;;;10.87;59.16;100931.81;5040015;28;45447;-69
2022/04/05 01:44:32;;;;;;;;;10.00;10.00;;;;;10.89;58.97;100937.06;5039237;28;45420;-70
2022/04/05 01:47:04;;;;;;;;;8.75;8.75;;;;;10.93;58.92;100936.19;5039322;28;45477;-70
2022/04/05 01:49:30;;;;;;;;;9.50;9.50;;;;;10.77;59.26;100909.06;5055239;28;45506;-70
2022/04/05 01:51:56;;;;;;;;;8.00;8.00;;;;;10.94;59.51;100933.59;5040014;28;45517;-68
2022/04/05 01:54:21;;;;;;;;;10.00;9.00;;;;;10.96;59.48;100938.81;5039957;28;45354;-69
2022/04/05 01:56:49;;;;;;;;;9.50;9.50;;;;;10.92;59.34;100930.09;5038802;28;45511;-70
2022/04/05 01:59:21;;;;;;;;;10.25;10.25;;;;;10.68;59.26;100890.69;5039042;28;45272;-70
2022/04/05 02:01:47;;;;;;;;;11.75;9.75;;;;;10.99;59.45;100938.84;5039092;28;45291;-69
2022/04/05 02:04:14;;;;;;;;;14.75;10.00;;;;;10.76;59.55;100894.22;5039125;28;45551;-70
2022/04/05 02:06:41;;;;;;;;;11.25;10.75;;;;;10.82;59.62;100913.47;5039279;28;46263;-71
2022/04/05 02:09:07;;;;;;;;;11.75;10.00;;;;;10.96;60.20;100942.34;5039059;28;45519;-70
2022/04/05 02:11:33;;;;;;;;;18.25;11.75;;;;;10.89;60.12;100937.94;5039006;28;45394;-70
2022/04/05 02:13:58;;;;;;;;;8.50;7.75;;;;;10.90;60.38;100939.69;5039212;28;45410;-70
2022/04/05 02:16:25;;;;;;;;;7.50;7.50;;;;;10.88;60.02;100935.31;5039023;28;46093;-70
2022/04/05 02:18:51;;;;;;;;;13.50;12.00;;;;;10.68;60.30;100893.28;5037751;28;45333;-70
2022/04/05 02:21:16;;;;;;;;;12.50;11.75;;;;;10.85;60.16;100923.09;5038859;28;45428;-71
2022/04/05 02:23:42;;;;;;;;;10.50;7.25;;;;;10.86;60.56;100924.81;5039357;28;45509;-71
2022/04/05 02:26:08;;;;;;;;;11.25;9.75;;;;;10.89;60.23;100919.59;5038999;28;45318;-69
2022/04/05 02:28:34;;;;;;;;;9.50;8.25;;;;;10.81;60.16;100911.69;5038414;28;45231;-70
2022/04/05 02:31:01;;;;;;;;;11.75;10.00;;;;;10.76;60.44;100907.31;5038747;28;45532;-71
2022/04/05 02:33:26;;;;;;;;;10.00;8.50;;;;;10.92;60.33;100930.09;5038752;28;45459;-69
2022/04/05 02:35:53;;;;;;;;;10.75;8.25;;;;;10.93;60.51;100936.19;5038108;28;45447;-70
2022/04/05 02:38:22;;;;;;;;;11.25;9.25;;;;;10.74;60.46;100901.19;5038331;28;45458;-70
2022/04/05 02:40:47;;;;;;;;;11.50;11.00;;;;;10.91;60.43;100924.84;5038444;28;45394;-71
2022/04/05 02:43:14;;;;;;;;;11.00;8.25;;;;;10.85;60.33;100920.47;5039200;28;45289;-71
2022/04/05 02:45:43;;;;;;;;;8.75;8.75;;;;;10.83;60.50;100909.97;5039131;28;45313;-71
2022/04/05 02:48:08;;;;;;;;;11.75;10.25;;;;;10.90;60.46;100923.97;5038988;28;45462;-70
2022/04/05 02:50:34;;;;;;;;;10.75;9.50;;;;;10.79;60.40;100900.34;5039241;28;45456;-70
2022/04/05 02:52:59;;;;;;;;;11.75;9.00;;;;;10.89;60.68;100910.84;5038905;28;45437;-70
2022/04/05 02:55:25;;;;;;;;;9.00;9.00;;;;;10.92;60.85;100918.75;5037963;28;45489;-70
2022/04/05 02:57:51;;;;;;;;;15.25;11.00;;;;;10.81;61.12;100895.09;5037592;28;45433;-70
2022/04/05 03:00:17;;;;;;;;;10.50;8.25;;;;;10.92;60.95;100916.13;5038468;28;45263;-70
2022/04/05 03:02:43;;;;;;;;;12.25;8.50;;;;;10.83;61.23;100902.09;5038718;28;45457;-70
2022/04/05 03:05:14;;;;;;;;;14.75;7.75;;;;;10.89;61.38;100913.47;5037761;28;45380;-70
2022/04/05 03:07:40;;;;;;;;;9.25;9.00;;;;;10.90;61.32;100910.88;5037610;28;45494;-70
2022/04/05 03:10:08;;;;;;;;;9.75;9.75;;;;;10.61;61.30;100867.09;5038038;28;45414;-69
2022/04/05 03:12:36;;;;;;;;;8.25;8.25;;;;;10.90;61.54;100904.75;5038061;28;45334;-69
2022/04/05 03:15:06;;;;;;;;;11.75;11.25;;;;;10.77;61.34;100881.13;5038532;28;45524;-70
2022/04/05 03:17:32;;;;;;;;;10.50;8.00;;;;;10.86;61.40;100900.38;5037718;28;45228;-70
2022/04/05 03:19:59;;;;;;;;;9.50;9.50;;;;;10.83;61.93;100896.84;5036767;28;45254;-70
2022/04/05 03:22:25;;;;;;;;;10.00;10.00;;;;;10.74;61.86;100882.84;5038201;28;45222;-70
2022/04/05 03:24:50;;;;;;;;;11.75;9.25;;;;;10.88;62.22;100899.50;5037610;28;45678;-70
2022/04/05 03:27:16;;;;;;;;;12.50;9.00;;;;;10.88;61.97;100896.88;5037654;28;45835;-70
2022/04/05 03:29:42;;;;;;;;;11.75;9.00;;;;;10.90;62.11;100892.53;5038133;28;45358;-69
2022/04/05 03:32:09;;;;;;;;;12.50;11.25;;;;;10.87;62.14;100903.00;5037983;28;45335;-69
2022/04/05 03:34:39;;;;;;;;;10.67;9.67;;;;;10.59;62.50;100852.25;5037179;28;46202;-70
2022/04/05 03:37:05;;;;;;;;;9.00;9.00;;;;;10.83;62.88;100889.00;5037511;28;45253;-69
2022/04/05 03:39:31;;;;;;;;;8.25;8.25;;;;;10.84;62.48;100889.88;5036915;28;45580;-69
2022/04/05 03:41:57;;;;;;;;;10.25;10.25;;;;;10.83;62.97;100894.25;5037894;28;45717;-71
2022/04/05 03:44:24;;;;;;;;;10.25;10.25;;;;;10.84;63.22;100889.88;5069609;28;45640;-70
2022/04/05 03:46:51;;;;;;;;;9.00;9.00;;;;;10.83;63.18;100890.75;5069697;27;45341;-70
2022/04/05 03:49:16;;;;;;;;;9.50;9.50;;;;;10.86;63.17;100882.03;5037579;28;46080;-71
2022/04/05 03:51:42;;;;;;;;;11.00;8.25;;;;;10.86;63.33;100893.38;5037820;28;45402;-69
2022/04/05 03:54:11;;;;;;;;;7.75;7.75;;;;;10.76;63.25;100860.16;5037482;27;46656;-70
2022/04/05 03:56:37;;;;;;;;;11.00;10.50;;;;;10.77;63.42;100867.13;5035795;28;45477;-71
2022/04/05 03:59:02;;;;;;;;;8.25;8.25;;;;;10.82;63.52;100870.69;5037285;28;45831;-70
2022/04/05 04:01:31;;;;;;;;;8.25;8.25;;;;;10.86;63.59;100882.03;5034269;28;45735;-70
2022/04/05 04:03:57;;;;;;;;;8.75;8.75;;;;;10.88;63.94;100878.53;5018142;28;46167;-70
2022/04/05 04:06:29;;;;;;;;;8.00;8.00;;;;;10.70;63.91;100834.84;5021601;28;45384;-70
2022/04/05 04:08:55;;;;;;;;;8.25;8.00;;;;;10.89;64.14;100872.44;5036978;28;45438;-71
2022/04/05 04:11:21;;;;;;;;;10.25;8.00;;;;;10.88;64.27;100875.03;5036840;28;45498;-70
2022/04/05 04:13:47;;;;;;;;;9.50;8.75;;;;;10.83;64.60;100868.03;5037084;28;45535;-70
2022/04/05 04:16:12;;;;;;;;;6.75;6.50;;;;;10.84;64.71;100874.16;5036707;28;45355;-70
2022/04/05 04:18:40;;;;;;;;;10.75;8.25;;;;;10.80;64.78;100861.94;5035429;28;45487;-70
2022/04/05 04:21:06;;;;;;;;;13.50;10.25;;;;;10.81;65.28;100871.53;5036812;28;45359;-70
2022/04/05 04:23:32;;;;;;;;;11.00;9.00;;;;;10.73;64.99;100861.03;5034339;28;45511;-70
2022/04/05 04:25:58;;;;;;;;;9.25;7.00;;;;;10.85;65.20;100868.06;5036064;28;45362;-70
2022/04/05 04:28:24;;;;;;;;;9.75;6.75;;;;;10.84;65.16;100863.66;5016912;28;45574;-69
2022/04/05 04:30:49;;;;;;;;;10.50;8.00;;;;;10.83;65.50;100865.41;5017457;28;45282;-69
2022/04/05 04:33:15;;;;;;;;;9.00;9.00;;;;;10.82;65.65;100871.53;5015344;28;48184;-69
2022/04/05 04:35:48;;;;;;;;;12.75;8.75;;;;;10.69;65.27;100848.78;5016670;28;45529;-69
2022/04/05 04:38:15;;;;;;;;;9.50;8.75;;;;;10.53;65.61;100820.78;5016909;28;45446;-72
2022/04/05 04:40:45;;;;;;;;;8.00;8.00;;;;;10.70;65.33;100841.78;5027437;28;45441;-70
2022/04/05 04:43:13;;;;;;;;;9.75;7.50;;;;;9.89;65.55;100716.66;5036706;28;46271;-70
2022/04/05 04:45:38;;;;;;;;;8.00;8.00;;;;;10.74;65.26;100846.19;5036165;28;45351;-70
2022/04/05 04:48:04;;;;;;;;;9.00;8.25;;;;;10.73;65.50;100857.53;5036419;28;45556;-70
2022/04/05 04:50:29;;;;;;;;;10.00;6.25;;;;;10.80;65.73;100872.41;5037167;28;45437;-69
2022/04/05 04:52:55;;;;;;;;;11.75;8.50;;;;;10.79;65.49;100865.41;5038715;28;46554;-70
2022/04/05 04:55:22;;;;;;;;;9.75;9.75;;;;;10.83;65.99;100869.78;5041364;28;45319;-71
2022/04/05 04:57:48;;;;;;;;;9.75;8.25;;;;;10.72;65.79;100850.53;5028820;28;45359;-70
2022/04/05 05:00:14;;;;;;;;;10.00;10.00;;;;;10.72;65.70;100840.91;5032067;28;45498;-70
2022/04/05 05:02:58;;;;;;;;;12.25;9.00;;;;;10.78;66.23;100866.28;5039671;28;46009;-70
2022/04/05 05:05:24;;;;;;;;;10.50;9.00;;;;;10.65;65.86;100835.66;5038478;28;45476;-70
2022/04/05 05:07:51;;;;;;;;;10.75;10.75;;;;;10.81;66.12;100861.03;5040942;28;45374;-69
2022/04/05 05:10:18;;;;;;;;;9.50;9.50;;;;;10.79;66.24;100868.03;5040329;28;45378;-69
2022/04/05 05:12:44;;;;;;;;;17.75;12.75;;;;;10.78;66.26;100869.78;5039802;28;45374;-69
2022/04/05 05:15:21;;;;;;;;;8.50;8.25;;;;;10.68;66.56;100849.66;5039671;28;45507;-69
2022/04/05 05:17:48;;;;;;;;;11.75;11.75;;;;;10.78;66.58;100858.44;5039471;28;45431;-69
2022/04/05 05:20:16;;;;;;;;;10.00;8.75;;;;;10.79;66.25;100868.03;5039853;28;45492;-69
2022/04/05 05:22:43;;;;;;;;;14.25;11.75;;;;;10.65;66.70;100843.53;5040049;28;46215;-70
2022/04/05 05:25:12;;;;;;;;;11.00;9.50;;;;;10.55;66.63;100826.91;5040564;28;45435;-70
2022/04/05 05:27:38;;;;;;;;;13.00;11.75;;;;;10.75;66.44;100858.44;5039999;28;45549;-69
2022/04/05 05:30:14;;;;;;;;;14.50;11.00;;;;;10.69;66.64;100854.03;5038640;28;45490;-69
2022/04/05 05:32:49;;;;;;;;;12.25;12.25;;;;;10.59;66.68;100839.16;5039244;28;45363;-70
2022/04/05 05:35:18;;;;;;;;;9.25;9.25;;;;;10.59;67.04;100839.16;5035272;28;45888;-69
2022/04/05 05:37:45;;;;;;;;;14.25;12.25;;;;;10.78;66.56;100869.78;5040092;28;45591;-69
2022/04/05 05:40:13;;;;;;;;;11.50;11.50;;;;;10.74;66.92;100864.50;5040776;28;45450;-70
2022/04/05 05:42:55;;;;;;;;;11.50;11.50;;;;;10.75;67.68;100868.91;5040507;28;45594;-69
2022/04/05 05:45:22;;;;;;;;;11.00;11.00;;;;;10.74;67.42;100869.75;5041524;28;45316;-70
2022/04/05 05:47:48;;;;;;;;;13.00;10.75;;;;;10.72;67.50;100861.88;5042083;28;45405;-69
2022/04/05 05:50:14;;;;;;;;;16.25;12.50;;;;;10.67;67.59;100865.38;5041313;28;45323;-69
2022/04/05 05:52:44;;;;;;;;;15.50;13.75;;;;;10.44;68.34;100829.50;5041155;28;45421;-69
2022/04/05 05:55:12;;;;;;;;;17.00;14.50;;;;;10.58;68.14;100876.66;5039543;28;45378;-70
2022/04/05 05:57:38;;;;;;;;;17.75;13.00;;;;;10.45;68.23;100843.47;5023871;28;45409;-69
2022/04/05 06:00:10;;;;;;;;;13.00;11.00;;;;;10.60;67.98;100869.69;5055768;28;45318;-70
2022/04/05 06:02:42;;;;;;;;;10.50;10.50;;;;;10.48;67.84;100852.19;5019823;28;45574;-70
2022/04/05 06:05:12;;;;;;;;;16.25;13.50;;;;;10.43;68.23;100851.31;5035846;28;45473;-71
2022/04/05 06:07:37;;;;;;;;;14.25;11.75;;;;;10.54;68.21;100873.19;5033228;28;45445;-71
2022/04/05 06:10:07;;;;;;;;;13.00;12.00;;;;;10.56;68.12;100874.06;5026426;28;45344;-70
2022/04/05 06:12:32;;;;;;;;;11.75;11.75;;;;;10.55;68.33;100872.28;5019385;28;45378;-71
2022/04/05 06:14:58;;;;;;;;;12.25;12.25;;;;;10.52;68.30;100864.44;5018850;28;45474;-70
2022/04/05 06:17:24;;;;;;;;;12.50;12.50;;;;;10.35;68.49;100837.31;5019821;28;45476;-70
2022/04/05 06:19:53;;;;;;;;;9.75;7.75;;;;;10.33;68.26;100837.28;5019491;28;45489;-70
2022/04/05 06:22:19;;;;;;;;;12.25;11.25;;;;;10.64;68.00;100886.31;5039559;28;45480;-70
2022/04/05 06:24:46;;;;;;;;;11.00;8.50;;;;;10.67;68.31;100891.56;5042784;28;45451;-71
2022/04/05 06:27:12;;;;;;;;;11.50;9.50;;;;;10.53;68.62;100871.41;5039142;28;45372;-70
2022/04/05 06:29:39;;;;;;;;;11.75;9.25;;;;;10.69;68.72;100898.56;5038713;28;45404;-70
2022/04/05 06:32:05;;;;;;;;;15.50;14.00;;;;;10.71;68.59;100898.56;5038533;28;45551;-70
2022/04/05 06:34:30;;;;;;;;;10.50;10.25;;;;;10.74;68.57;100903.81;5040132;28;45475;-70
2022/04/05 06:37:00;;;;;;;;;11.75;10.50;;;;;10.77;68.32;100901.19;5040503;28;45477;-70
2022/04/05 06:39:26;;;;;;;;;15.50;11.25;;;;;10.56;68.46;100866.22;5037404;28;45471;-70
2022/04/05 06:41:53;;;;;;;;;13.25;10.50;;;;;10.67;68.40;100887.19;5036490;28;47583;-71
2022/04/05 06:44:19;;;;;;;;;13.75;12.50;;;;;10.83;68.92;100916.94;5037379;28;45460;-69
2022/04/05 06:46:45;;;;;;;;;10.00;7.75;;;;;10.85;69.05;100914.34;5034414;28;45459;-71
2022/04/05 06:49:11;;;;;;;;;12.25;10.50;;;;;10.66;68.88;100879.34;5050098;28;45375;-69
2022/04/05 06:51:37;;;;;;;;;11.25;10.75;;;;;10.56;69.51;100852.25;5017490;28;45779;-70
2022/04/05 06:54:05;;;;;;;;;10.25;9.25;;;;;10.71;69.19;100888.09;5064467;28;45349;-69
2022/04/05 06:56:37;;;;;;;;;8.00;8.00;;;;;10.81;69.33;100892.47;5038258;28;45484;-70
2022/04/05 06:59:05;;;;;;;;;12.00;9.75;;;;;10.89;69.39;100897.75;5039138;28;45422;-70
2022/04/05 07:01:32;;;;;;;;;11.25;9.00;;;;;10.87;69.25;100900.38;5038497;28;45911;-69
2022/04/05 07:03:59;;;;;;;;;7.50;7.50;;;;;10.83;69.09;100886.38;5039023;28;45619;-72
2022/04/05 07:06:36;;;;;;;;;12.50;9.50;;;;;10.91;69.28;100891.63;5055083;27;45465;-74
2022/04/05 07:09:02;;;;;;;;;11.00;11.00;;;;;10.87;69.22;100883.75;5032336;28;45372;-69
2022/04/05 07:11:28;;;;;;;;;11.00;9.00;;;;;10.76;69.76;100855.78;5038015;28;45474;-70
2022/04/05 07:13:53;;;;;;;;;13.00;10.25;;;;;10.92;69.33;100888.16;5037272;28;45600;-69
2022/04/05 07:16:19;;;;;;;;;20.25;16.50;;;;;11.02;69.50;100899.53;5036124;28;45342;-69
2022/04/05 07:18:45;;;;;;;;;11.50;10.50;;;;;11.01;69.87;100890.81;5033020;28;45578;-70
2022/04/05 07:21:12;;;;;;;;;13.50;11.75;;;;;11.02;69.54;100895.16;5035536;28;46221;-70
2022/04/05 07:23:39;;;;;;;;;14.50;10.00;;;;;11.00;69.41;100893.41;5034511;28;45424;-70
2022/04/05 07:26:21;;;;;;;;;10.00;9.75;;;;;10.90;69.74;100883.78;5034798;28;45665;-70
2022/04/05 07:29:17;;;;;;;;;12.25;9.75;;;;;10.94;69.97;100896.00;5034742;28;45790;-70
2022/04/05 07:31:43;;;;;;;;;11.00;11.00;;;;;10.94;69.64;100891.66;5030232;28;46908;-70
2022/04/05 07:34:09;;;;;;;;;10.00;8.25;;;;;10.90;69.92;100886.41;5034160;28;45491;-69
2022/04/05 07:36:35;;;;;;;;;11.50;8.75;;;;;10.83;70.13;100877.66;5033456;28;45453;-69
2022/04/05 07:39:01;;;;;;;;;14.50;13.25;;;;;10.91;70.14;100896.00;5033801;28;45523;-70
2022/04/05 07:41:27;;;;;;;;;11.25;10.00;;;;;10.93;70.16;100895.13;5033308;28;45877;-70
2022/04/05 07:43:56;;;;;;;;;11.50;11.50;;;;;10.91;69.97;100896.88;5033456;28;45899;-70
2022/04/05 07:46:22;;;;;;;;;13.25;9.00;;;;;11.01;70.46;100909.16;5033283;28;45551;-70
2022/04/05 07:48:48;;;;;;;;;11.00;9.25;;;;;11.00;70.03;100891.66;5033075;28;45405;-69
2022/04/05 07:51:15;;;;;;;;;8.75;8.75;;;;;10.92;70.28;100879.44;5033433;28;46162;-69
2022/04/05 07:53:40;;;;;;;;;11.75;11.00;;;;;10.99;70.36;100899.53;5033567;28;45363;-70
2022/04/05 07:56:06;;;;;;;;;10.00;9.25;;;;;11.05;70.22;100894.31;5033735;28;45963;-70
2022/04/05 07:58:31;;;;;;;;;5.75;2.75;;;;;11.12;70.44;100900.44;5033618;28;45666;-71
2022/04/05 08:00:57;;;;;;;;;11.00;8.00;;;;;11.15;70.11;100890.84;5033238;28;45607;-70
2022/04/05 08:03:23;;;;;;;;;10.25;10.25;;;;;11.04;70.33;100875.09;5033210;28;45375;-71
2022/04/05 08:05:55;;;;;;;;;10.75;10.75;;;;;11.13;69.83;100892.59;5033156;28;45397;-69
2022/04/05 08:08:21;;;;;;;;;11.75;9.50;;;;;11.14;70.25;100890.84;5032789;28;45532;-71
2022/04/05 08:10:47;;;;;;;;;10.25;9.25;;;;;11.13;70.03;100884.72;5032899;28;46671;-69
2022/04/05 08:13:17;;;;;;;;;13.00;8.75;;;;;11.22;69.82;100896.97;5033526;28;45525;-70
2022/04/05 08:15:44;;;;;;;;;13.25;11.75;;;;;11.28;69.76;100902.22;5033490;28;45399;-69
2022/04/05 08:18:13;;;;;;;;;9.25;9.25;;;;;11.21;70.41;100895.22;5032636;28;45611;-70
2022/04/05 08:20:46;;;;;;;;;14.50;14.00;;;;;11.19;70.11;100895.22;5033142;28;45470;-70
2022/04/05 08:23:13;;;;;;;;;13.50;12.00;;;;;11.28;70.36;100909.22;5034259;28;45386;-70
2022/04/05 08:26:09;;;;;;;;;15.00;12.00;;;;;11.31;70.56;100911.84;5033164;28;45458;-69
2022/04/05 08:28:35;;;;;;;;;13.50;10.00;;;;;11.21;70.46;100895.22;5028670;28;45592;-69
2022/04/05 08:34:09;;;;;;;;;12.25;11.75;;;;;11.39;70.60;100916.25;5032027;28;45404;-69
2022/04/05 08:36:36;;;;;;;;;14.25;9.00;;;;;11.36;70.35;100913.59;5030319;28;45620;-70
2022/04/05 08:39:02;;;;;;;;;10.50;9.25;;;;;11.42;70.49;100915.38;5036611;28;45504;-71
2022/04/05 08:41:35;;;;;;;;;14.50;12.00;;;;;11.40;70.77;100907.47;5036230;28;46002;-69
2022/04/05 08:44:01;;;;;;;;;12.00;12.00;;;;;11.42;70.69;100904.88;5035107;28;46242;-71
2022/04/05 08:46:32;;;;;;;;;11.50;10.25;;;;;11.43;71.19;100909.22;5036560;28;45492;-69
2022/04/05 08:48:59;;;;;;;;;8.75;8.75;;;;;11.41;70.89;100888.28;5036775;28;45374;-69
2022/04/05 08:51:25;;;;;;;;;9.25;9.00;;;;;11.42;70.75;100889.13;5036390;28;45469;-70
2022/04/05 08:53:50;;;;;;;;;11.25;9.25;;;;;11.50;70.71;100897.00;5036705;28;45475;-71
2022/04/05 08:56:16;;;;;;;;;7.25;7.25;;;;;11.61;70.88;100906.63;5038086;28;45266;-70
2022/04/05 08:58:42;;;;;;;;;11.25;10.00;;;;;11.64;70.84;100901.38;5036031;28;45592;-69
2022/04/05 09:01:08;;;;;;;;;8.50;8.50;;;;;11.72;70.48;100906.66;5036806;28;45271;-70
2022/04/05 09:03:35;;;;;;;;;11.25;8.50;;;;;11.74;70.61;100904.88;5036983;28;45336;-70
2022/04/05 09:06:28;;;;;;;;;14.75;11.50;;;;;11.76;70.51;100913.63;5036038;28;45526;-70
2022/04/05 09:09:10;;;;;;;;;14.00;11.00;;;;;11.78;70.52;100896.13;5036808;28;45462;-69
2022/04/05 09:11:42;;;;;;;;;13.25;12.00;;;;;11.79;70.65;100904.88;5036436;28;46283;-70
2022/04/05 09:14:07;;;;;;;;;13.50;10.50;;;;;11.76;70.75;100897.88;5034398;28;45539;-69
2022/04/05 09:16:35;;;;;;;;;15.25;12.75;;;;;11.73;70.68;100881.28;5036528;28;45319;-69
2022/04/05 09:19:13;;;;;;;;;10.50;10.00;;;;;11.81;70.50;100896.13;5036595;28;45516;-71
2022/04/05 09:21:53;;;;;;;;;9.75;9.75;;;;;11.90;70.81;100902.28;5035970;28;46568;-69
2022/04/05 09:24:19;;;;;;;;;15.00;11.00;;;;;11.79;70.35;100884.78;5035914;28;45500;-69
2022/04/05 09:26:49;;;;;;;;;9.25;9.25;;;;;11.81;70.24;100885.63;5036194;28;45443;-70
2022/04/05 09:29:15;;;;;;;;;13.25;9.00;;;;;11.88;70.40;100887.41;5036163;28;45431;-69
2022/04/05 09:31:56;;;;;;;;;13.25;9.50;;;;;11.96;70.20;100897.00;5035564;28;45308;-71
2022/04/05 09:34:21;;;;;;;;;13.25;10.25;;;;;12.03;70.57;100906.63;5035694;28;45370;-71
2022/04/05 09:36:49;;;;;;;;;14.25;11.00;;;;;12.03;70.70;100917.13;5036027;28;45300;-69
2022/04/05 09:39:17;;;;;;;;;12.75;8.50;;;;;11.95;72.34;100896.16;5038942;28;45246;-70
2022/04/05 09:41:47;;;;;;;;;8.75;8.00;;;;;12.10;70.66;100905.75;5037911;28;47716;-71
2022/04/05 09:44:24;;;;;;;;;16.00;13.50;;;;;12.06;70.65;100897.03;5039261;28;45430;-70
2022/04/05 09:46:52;;;;;;;;;16.50;14.50;;;;;12.17;70.53;100920.66;5028841;28;45873;-69
2022/04/05 09:49:29;;;;;;;;;14.75;11.50;;;;;12.20;70.53;100923.25;5037590;28;45454;-70
2022/04/05 09:51:55;;;;;;;;;11.50;9.75;;;;;12.20;70.76;100912.75;5034961;28;46519;-71
2022/04/05 09:54:29;;;;;;;;;15.00;12.25;;;;;12.24;70.30;100913.59;5033149;28;45501;-71
2022/04/05 09:57:06;;;;;;;;;13.00;10.25;;;;;12.20;71.42;100901.38;5037090;28;45673;-70
2022/04/05 09:59:38;;;;;;;;;12.75;10.00;;;;;12.24;70.97;100904.00;5039149;28;45585;-71
2022/04/05 10:02:18;;;;;;;;;13.00;11.00;;;;;12.26;70.95;100904.84;5030523;28;45840;-70
2022/04/05 10:05:05;;;;;;;;;12.75;9.00;;;;;12.32;71.05;100906.59;5037355;28;45965;-71
2022/04/05 10:07:33;;;;;;;;;19.75;15.25;;;;;12.12;75.60;100861.13;5037949;28;45251;-71
2022/04/05 10:10:04;;;;;;;;;14.50;13.00;;;;;12.29;72.98;100877.69;5038000;28;45863;-71
2022/04/05 10:12:30;;;;;;;;;18.75;13.50;;;;;12.48;72.44;100910.94;5036601;28;45525;-70
2022/04/05 10:14:56;;;;;;;;;16.25;13.00;;;;;12.52;73.38;100909.16;5035743;28;45264;-70
2022/04/05 10:17:28;;;;;;;;;15.50;15.50;;;;;12.52;72.80;100906.53;5037135;28;45287;-70
2022/04/05 10:19:58;;;;;;;;;17.75;13.50;;;;;12.50;72.30;100892.53;5034629;28;47029;-69
2022/04/05 10:22:31;;;;;;;;;11.75;9.75;;;;;12.53;71.69;100882.03;5036153;28;45582;-69
2022/04/05 10:24:57;;;;;;;;;17.50;16.75;;;;;12.64;74.01;100909.13;5035556;28;45396;-70
2022/04/05 10:27:25;;;;;;;;;16.50;15.50;;;;;12.42;73.40;100873.31;5036547;28;45417;-71
2022/04/05 10:30:02;;;;;;;;;13.50;13.50;;;;;12.73;72.27;100913.47;5038931;28;45366;-70
2022/04/05 10:32:36;;;;;;;;;13.25;10.25;;;;;12.58;71.29;100880.25;5038445;28;45581;-70
2022/04/05 10:35:08;;;;;;;;;12.50;12.00;;;;;12.65;71.46;100896.88;5038119;28;45622;-69
2022/04/05 10:37:36;;;;;;;;;12.50;11.25;;;;;12.56;70.82;100882.00;5037294;28;45388;-69
2022/04/05 10:40:10;;;;;;;;;11.25;8.50;;;;;12.63;71.18;100894.25;5038303;28;45335;-70
2022/04/05 10:42:52;;;;;;;;;13.00;9.25;;;;;12.45;71.03;100870.66;5036582;28;46646;-69
2022/04/05 10:45:28;;;;;;;;;8.50;8.50;;;;;12.56;70.74;100894.28;5038446;28;45402;-68
2022/04/05 10:48:01;;;;;;;;;13.00;9.00;;;;;12.60;70.89;100906.50;5038316;28;45403;-69
2022/04/05 10:50:28;;;;;;;;;11.00;9.00;;;;;12.39;71.20;100873.31;5038069;28;45336;-69
2022/04/05 10:53:14;;;;;;;;;10.75;7.75;;;;;12.63;70.92;100903.88;5038280;28;46154;-68
2022/04/05 10:56:07;;;;;;;;;8.75;7.25;;;;;12.63;70.92;100899.50;5036749;28;46033;-70
2022/04/05 10:58:47;;;;;;;;;9.25;9.25;;;;;12.63;70.88;100896.00;5037783;28;45378;-69
2022/04/05 11:01:44;;;;;;;;;14.50;8.25;;;;;12.61;70.89;100879.38;5038265;28;45300;-70
2022/04/05 11:04:18;;;;;;;;;14.00;9.75;;;;;12.65;70.97;100887.22;5037715;28;45361;-71
2022/04/05 11:06:59;;;;;;;;;8.25;7.75;;;;;12.67;70.70;100889.81;5037678;28;45421;-70
2022/04/05 11:09:35;;;;;;;;;8.00;5.25;;;;;12.65;70.42;100887.22;5038061;28;45395;-69
2022/04/05 11:12:03;;;;;;;;;8.75;7.75;;;;;12.66;70.51;100891.59;5038286;28;45465;-71
2022/04/05 11:14:51;;;;;;;;;8.75;8.75;;;;;12.49;71.75;100859.25;5038030;28;46964;-69
2022/04/05 11:17:20;;;;;;;;;28.25;24.00;;;;;12.83;71.83;100894.13;5037793;28;45422;-70
2022/04/05 11:19:50;;;;;;;;;40.00;31.25;;;;;12.93;71.28;100885.34;5037929;28;45430;-69
2022/04/05 11:22:21;;;;;;;;;20.00;18.00;;;;;12.96;70.80;100880.97;5038029;28;45446;-69
2022/04/05 11:25:07;;;;;;;;;13.00;13.00;;;;;12.98;70.21;100884.44;5038402;28;45572;-69